Morton, Wyoming
Current Conditions -  °F | °C
As of 1:53 PM on Tuesday 21 Oct 2014 (Local Time) from KLND Reporting Station
Broken Clouds Broken Clouds  
Wind Chill: 69°   Ceiling: 8000
Heat Index: 69°   Visibility: 10mi
Dew Point: 34°   Wind: 12mph
Humidity: 27%   Direction: 270°W
Pressure: 29.82"   Gusts: 20mph
Location:  43.1005°N, 108.934°W
Report Text: KLND 211953Z AUTO 27010G17KT 10SM BKN080 BKN110 21/01 A2982 RMK AO2 PK WND 25026/1905 SLP040 T02060011 TSNO
Loading
Personal Weather Stations






























Interactive Weather Map
Tropical Storm Tracking
New forecast layout! Learn more

10-Day Weather Forecast

Advertisements
Track Severe Weather on mobile